createdAt,value
2022-08-16T00:02:21.964Z,6.28
2022-08-16T00:04:51.169Z,9.57
2022-08-16T00:07:18.121Z,5.90
2022-08-16T00:09:45.156Z,8.90
2022-08-16T00:12:12.690Z,8.38
2022-08-16T00:14:45.274Z,5.30
2022-08-16T00:17:18.787Z,5.28
2022-08-16T00:19:47.268Z,6.10
2022-08-16T00:22:15.837Z,6.97
2022-08-16T00:24:44.775Z,6.47
2022-08-16T00:27:13.119Z,5.13
2022-08-16T00:29:39.547Z,9.48
2022-08-16T00:32:07.973Z,6.43
2022-08-16T00:34:44.113Z,8.47
2022-08-16T00:37:21.062Z,8.20
2022-08-16T00:39:57.153Z,7.60
2022-08-16T00:42:30.624Z,8.95
2022-08-16T00:45:09.340Z,7.03
2022-08-16T00:47:42.603Z,9.90
2022-08-16T00:50:19.412Z,7.55
2022-08-16T00:52:50.816Z,8.90
2022-08-16T00:55:20.177Z,8.70
2022-08-16T00:57:59.816Z,9.05
2022-08-16T01:00:30.316Z,8.70
2022-08-16T01:03:01.001Z,9.40
2022-08-16T01:05:29.877Z,9.50
2022-08-16T01:07:57.375Z,11.90
2022-08-16T01:10:31.939Z,8.32
2022-08-16T01:13:06.613Z,9.38
2022-08-16T01:15:36.091Z,12.10
2022-08-16T01:18:05.852Z,8.65
2022-08-16T01:20:36.350Z,14.77
2022-08-16T01:23:11.527Z,8.23
2022-08-16T01:25:44.469Z,9.60
2022-08-16T01:28:30.933Z,10.65
2022-08-16T01:30:59.198Z,11.00
2022-08-16T01:33:33.145Z,9.63
2022-08-16T01:36:11.812Z,8.90
2022-08-16T01:38:46.835Z,10.40
2022-08-16T01:41:21.021Z,8.82
2022-08-16T01:43:54.140Z,11.07
2022-08-16T01:46:39.711Z,10.95
2022-08-16T01:49:20.317Z,8.15
2022-08-16T01:51:51.260Z,9.90
2022-08-16T01:54:17.706Z,12.27
2022-08-16T01:56:58.202Z,12.25
2022-08-16T01:59:24.984Z,10.13
2022-08-16T02:02:00.226Z,10.00
2022-08-16T02:04:48.100Z,11.60
2022-08-16T02:07:18.215Z,11.50
2022-08-16T02:09:57.007Z,8.52
2022-08-16T02:12:50.096Z,10.50
2022-08-16T02:15:11.565Z,11.38
2022-08-16T02:17:38.561Z,9.88
2022-08-16T02:20:11.577Z,10.88
2022-08-16T02:22:38.936Z,11.43
2022-08-16T02:25:10.447Z,10.15
2022-08-16T02:27:39.262Z,12.30
2022-08-16T02:30:37.198Z,11.05
2022-08-16T02:33:00.936Z,10.82
2022-08-16T02:35:29.201Z,8.32
2022-08-16T02:37:56.232Z,12.05
2022-08-16T02:40:24.279Z,13.38
2022-08-16T02:42:53.228Z,10.32
2022-08-16T02:45:24.662Z,11.02
2022-08-16T02:48:00.137Z,13.50
2022-08-16T02:50:53.445Z,10.38
2022-08-16T02:53:25.920Z,9.30
2022-08-16T02:55:53.549Z,9.82
2022-08-16T02:58:25.018Z,11.75
2022-08-16T03:00:53.366Z,10.25
2022-08-16T03:03:23.020Z,10.73
2022-08-16T03:05:53.186Z,9.27
2022-08-16T03:08:49.864Z,10.73
2022-08-16T03:11:16.598Z,10.98
2022-08-16T03:13:53.292Z,12.13
2022-08-16T03:16:38.109Z,12.80
2022-08-16T03:19:06.905Z,10.88
2022-08-16T03:21:38.043Z,12.07
2022-08-16T03:26:57.965Z,14.10
2022-08-16T03:29:29.968Z,12.45
2022-08-16T03:31:59.175Z,13.27
2022-08-16T03:34:27.357Z,11.98
2022-08-16T03:36:55.206Z,15.50
2022-08-16T03:39:22.246Z,11.68
2022-08-16T03:41:51.316Z,13.68
2022-08-16T03:44:43.931Z,11.45
2022-08-16T03:47:13.617Z,12.07
2022-08-16T03:49:47.422Z,13.23
2022-08-16T03:52:18.869Z,11.98
2022-08-16T03:54:57.347Z,14.13
2022-08-16T03:57:31.342Z,16.08
2022-08-16T03:59:59.136Z,13.73
2022-08-16T04:02:31.206Z,14.13
2022-08-16T04:04:58.318Z,12.98
2022-08-16T04:07:25.304Z,14.05
2022-08-16T04:09:52.394Z,14.80
2022-08-16T04:12:53.673Z,13.95
2022-08-16T04:15:09.147Z,17.05
2022-08-16T04:17:36.836Z,14.48
2022-08-16T04:20:31.195Z,14.43
2022-08-16T04:22:55.703Z,17.45
2022-08-16T04:25:22.652Z,13.40
2022-08-16T04:27:56.086Z,16.23
2022-08-16T04:30:34.882Z,14.15
2022-08-16T04:33:02.278Z,11.52
2022-08-16T04:35:34.088Z,16.10
2022-08-16T04:38:01.149Z,16.30
2022-08-16T04:40:38.472Z,13.57
2022-08-16T04:43:05.680Z,14.90
2022-08-16T04:45:36.229Z,14.95
2022-08-16T04:48:04.159Z,15.30
2022-08-16T04:50:30.726Z,17.25
2022-08-16T04:52:59.138Z,16.83
2022-08-16T04:55:31.672Z,14.38
2022-08-16T04:57:58.634Z,16.75
2022-08-16T05:00:34.011Z,22.63
2022-08-16T05:03:08.405Z,15.85
2022-08-16T05:05:55.629Z,13.32
2022-08-16T05:08:29.937Z,13.27
2022-08-16T05:11:05.719Z,15.90
2022-08-16T05:13:40.445Z,17.05
2022-08-16T05:16:20.313Z,15.68
2022-08-16T05:18:50.785Z,20.15
2022-08-16T05:21:17.464Z,17.40
2022-08-16T05:23:51.587Z,16.92
2022-08-16T05:26:24.080Z,15.75
2022-08-16T05:28:55.247Z,15.30
2022-08-16T05:31:23.461Z,20.45
2022-08-16T05:33:53.606Z,20.73
2022-08-16T05:36:21.587Z,18.40
2022-08-16T05:38:48.891Z,18.05
2022-08-16T05:41:17.029Z,17.10
2022-08-16T05:43:47.525Z,15.85
2022-08-16T05:46:30.362Z,19.02
2022-08-16T05:49:05.662Z,17.60
2022-08-16T05:51:39.075Z,17.13
2022-08-16T05:54:09.751Z,20.77
2022-08-16T05:56:39.249Z,18.40
2022-08-16T05:59:06.713Z,27.80
2022-08-16T06:01:38.283Z,20.83
2022-08-16T06:04:13.743Z,19.60
2022-08-16T06:06:56.108Z,17.60
2022-08-16T06:11:52.000Z,24.52
2022-08-16T06:14:19.649Z,18.92
2022-08-16T06:16:50.909Z,16.83
2022-08-16T06:19:17.995Z,20.15
2022-08-16T06:21:44.997Z,15.10
2022-08-16T06:24:54.508Z,16.25
2022-08-16T06:26:58.514Z,15.23
2022-08-16T06:29:25.350Z,15.63
2022-08-16T06:31:53.326Z,15.13
2022-08-16T06:34:31.684Z,24.63
2022-08-16T06:37:07.561Z,17.08
2022-08-16T06:39:34.701Z,18.73
2022-08-16T06:42:18.314Z,18.83
2022-08-16T06:44:45.295Z,16.73
2022-08-16T06:47:12.919Z,16.20
2022-08-16T06:49:52.617Z,18.23
2022-08-16T06:52:59.744Z,18.65
2022-08-16T06:55:13.591Z,21.17
2022-08-16T06:57:41.507Z,22.33
2022-08-16T07:00:24.379Z,19.35
2022-08-16T07:02:53.407Z,44.42
2022-08-16T07:05:27.239Z,21.55
2022-08-16T07:08:08.644Z,36.90
2022-08-16T07:10:38.651Z,26.95
2022-08-16T07:13:12.717Z,20.25
2022-08-16T07:15:50.630Z,24.90
2022-08-16T07:18:21.156Z,21.42
2022-08-16T07:20:53.373Z,21.40
2022-08-16T07:23:37.426Z,19.35
2022-08-16T07:26:09.854Z,18.52
2022-08-16T07:31:05.159Z,19.05
2022-08-16T07:33:52.841Z,19.15
2022-08-16T07:36:22.625Z,19.17
2022-08-16T07:38:50.157Z,20.88
2022-08-16T07:41:17.044Z,18.38
2022-08-16T07:43:43.959Z,15.40
2022-08-16T07:46:37.947Z,16.52
2022-08-16T07:49:02.309Z,17.08
2022-08-16T07:51:33.072Z,18.67
2022-08-16T07:54:09.394Z,16.45
2022-08-16T07:56:37.526Z,16.83
2022-08-16T07:59:05.121Z,14.88
2022-08-16T08:01:31.955Z,17.13
2022-08-16T08:03:59.118Z,16.88
2022-08-16T08:06:28.547Z,19.15
2022-08-16T08:08:57.569Z,18.30
2022-08-16T08:11:28.309Z,16.63
2022-08-16T08:13:57.434Z,18.60
2022-08-16T08:16:30.855Z,16.45
2022-08-16T08:19:00.526Z,13.80
2022-08-16T08:22:00.863Z,18.13
2022-08-16T08:24:15.207Z,14.38
2022-08-16T08:26:42.960Z,15.38
2022-08-16T08:29:09.681Z,16.45
2022-08-16T08:31:36.328Z,17.92
2022-08-16T08:34:07.184Z,14.52
2022-08-16T08:39:12.748Z,20.70
2022-08-16T08:41:42.212Z,18.77
2022-08-16T08:44:29.449Z,14.82
2022-08-16T08:47:00.003Z,13.93
2022-08-16T08:49:47.059Z,17.05
2022-08-16T08:52:33.629Z,15.93
2022-08-16T08:55:09.044Z,14.20
2022-08-16T08:57:39.634Z,14.25
2022-08-16T09:00:13.203Z,17.95
2022-08-16T09:02:40.077Z,17.58
2022-08-16T09:05:15.512Z,12.55
2022-08-16T09:08:00.563Z,11.75
2022-08-16T09:10:29.441Z,12.55
2022-08-16T09:12:57.030Z,11.68
2022-08-16T09:15:24.095Z,12.88
2022-08-16T09:17:54.657Z,7.43
2022-08-16T09:20:25.566Z,11.23
2022-08-16T09:22:53.002Z,11.77
2022-08-16T09:25:26.117Z,11.45
2022-08-16T09:27:57.890Z,14.65
2022-08-16T09:30:33.711Z,11.27
2022-08-16T09:33:06.673Z,13.45
2022-08-16T09:35:37.507Z,11.52
2022-08-16T09:38:08.359Z,9.45
2022-08-16T09:40:42.339Z,7.22
2022-08-16T09:43:37.725Z,8.25
2022-08-16T09:46:03.662Z,22.40
2022-08-16T09:48:52.769Z,7.78
2022-08-16T09:51:26.156Z,9.18
2022-08-16T09:53:57.495Z,10.82
2022-08-16T09:56:31.559Z,5.80
2022-08-16T09:59:05.509Z,7.50
2022-08-16T10:01:36.565Z,8.63
2022-08-16T10:04:04.295Z,9.15
2022-08-16T10:06:34.244Z,6.55
2022-08-16T10:09:06.082Z,8.60
2022-08-16T10:11:53.495Z,10.00
2022-08-16T10:14:24.560Z,7.80
2022-08-16T10:16:51.479Z,7.07
2022-08-16T10:19:27.765Z,7.63
2022-08-16T10:21:56.670Z,10.13
2022-08-16T10:24:28.753Z,6.65
2022-08-16T10:27:16.553Z,8.55
2022-08-16T10:30:00.708Z,6.22
2022-08-16T10:32:32.167Z,5.93
2022-08-16T10:34:59.537Z,7.97
2022-08-16T10:37:35.716Z,6.75
2022-08-16T10:40:06.137Z,5.82
2022-08-16T10:42:52.446Z,4.35
2022-08-16T10:45:19.682Z,4.18
2022-08-16T10:47:46.223Z,7.07
2022-08-16T10:50:19.823Z,5.50
2022-08-16T10:52:49.604Z,7.93
2022-08-16T10:58:11.441Z,8.02
2022-08-16T11:00:40.572Z,6.00
2022-08-16T11:03:42.944Z,4.35
2022-08-16T11:05:59.614Z,9.32
2022-08-16T11:08:35.081Z,5.13
2022-08-16T11:11:11.707Z,3.20
2022-08-16T11:14:11.027Z,4.95
2022-08-16T11:19:20.081Z,8.82
2022-08-16T11:24:42.409Z,7.10
2022-08-16T11:27:19.437Z,5.03
2022-08-16T11:29:46.533Z,7.50
2022-08-16T11:32:12.910Z,7.07
2022-08-16T11:35:05.922Z,7.78
2022-08-16T11:38:04.603Z,6.30
2022-08-16T11:40:16.109Z,6.18
2022-08-16T11:42:45.983Z,8.00
2022-08-16T11:45:12.857Z,4.53
2022-08-16T11:47:42.005Z,3.30
2022-08-16T11:50:09.413Z,4.53
2022-08-16T11:52:37.396Z,8.25
2022-08-16T11:55:07.470Z,4.15
2022-08-16T11:57:35.194Z,4.20
2022-08-16T12:00:02.235Z,4.43
2022-08-16T12:02:30.940Z,5.28
2022-08-16T12:04:59.738Z,5.00
2022-08-16T12:07:28.148Z,7.10
2022-08-16T12:09:54.931Z,5.25
2022-08-16T12:12:23.650Z,8.18
2022-08-16T12:14:59.263Z,7.00
2022-08-16T12:17:29.018Z,5.60
2022-08-16T12:19:58.495Z,4.38
2022-08-16T12:22:25.580Z,6.38
2022-08-16T12:24:53.273Z,5.00
2022-08-16T12:27:23.155Z,6.70
2022-08-16T12:29:51.356Z,6.97
2022-08-16T12:32:35.774Z,6.05
2022-08-16T12:35:07.424Z,6.68
2022-08-16T12:37:35.117Z,5.78
2022-08-16T12:40:02.451Z,4.43
2022-08-16T12:42:34.655Z,6.35
2022-08-16T12:45:07.384Z,4.88
2022-08-16T12:48:04.933Z,4.35
2022-08-16T12:50:39.490Z,3.58
2022-08-16T12:53:06.267Z,8.60
2022-08-16T12:55:33.597Z,3.72
2022-08-16T12:58:13.512Z,5.30
2022-08-16T13:00:41.811Z,4.97
2022-08-16T13:03:09.735Z,6.30
2022-08-16T13:05:45.023Z,4.78
2022-08-16T13:08:22.864Z,7.85
2022-08-16T13:10:57.196Z,5.25
2022-08-16T13:13:24.866Z,3.60
2022-08-16T13:16:00.776Z,6.05
2022-08-16T13:18:34.774Z,4.97
2022-08-16T13:21:07.635Z,5.93
2022-08-16T13:23:36.936Z,4.50
2022-08-16T13:26:10.594Z,7.35
2022-08-16T13:28:36.988Z,8.07
2022-08-16T13:31:03.535Z,7.57
2022-08-16T13:33:36.864Z,6.93
2022-08-16T13:36:07.122Z,6.40
2022-08-16T13:38:47.510Z,6.82
2022-08-16T13:41:15.828Z,3.42
2022-08-16T13:43:42.876Z,4.70
2022-08-16T13:46:09.318Z,5.63
2022-08-16T13:48:43.045Z,6.10
2022-08-16T13:51:17.461Z,5.72
2022-08-16T13:53:59.934Z,4.90
2022-08-16T13:56:36.849Z,4.80
2022-08-16T13:59:05.588Z,6.65
2022-08-16T14:01:32.868Z,7.32
2022-08-16T14:04:04.535Z,5.00
2022-08-16T14:06:31.731Z,3.38
2022-08-16T14:09:06.995Z,8.60
2022-08-16T14:11:34.657Z,5.10
2022-08-16T14:14:01.685Z,6.70
2022-08-16T14:16:34.300Z,2.97
2022-08-16T14:21:35.151Z,3.15
2022-08-16T14:24:02.618Z,6.30
2022-08-16T14:26:40.244Z,3.70
2022-08-16T14:29:06.904Z,5.43
2022-08-16T14:31:36.242Z,3.10
2022-08-16T14:34:05.956Z,3.55
2022-08-16T14:36:38.104Z,8.27
2022-08-16T14:39:08.549Z,7.97
2022-08-16T14:41:35.000Z,7.03
2022-08-16T14:44:04.512Z,3.10
2022-08-16T14:46:30.915Z,6.07
2022-08-16T14:48:57.279Z,6.13
2022-08-16T14:51:27.324Z,6.43
2022-08-16T14:53:54.053Z,8.85
2022-08-16T14:56:38.731Z,4.53
2022-08-16T14:59:06.993Z,6.90
2022-08-16T15:01:59.815Z,7.60
2022-08-16T15:04:39.741Z,7.18
2022-08-16T15:07:11.245Z,6.03
2022-08-16T15:09:44.254Z,7.72
2022-08-16T15:12:31.106Z,8.90
2022-08-16T15:15:01.422Z,6.70
2022-08-16T15:17:33.993Z,13.07
2022-08-16T15:20:09.233Z,10.40
2022-08-16T15:22:43.137Z,10.55
2022-08-16T15:25:16.014Z,7.72
2022-08-16T15:27:43.430Z,9.07
2022-08-16T15:30:57.844Z,9.73
2022-08-16T15:33:03.983Z,9.18
2022-08-16T15:35:31.485Z,17.92
2022-08-16T15:38:00.386Z,6.22
2022-08-16T15:40:35.186Z,8.25
2022-08-16T15:43:04.675Z,6.50
2022-08-16T15:45:53.667Z,6.97
2022-08-16T15:48:29.156Z,7.05
2022-08-16T15:50:59.083Z,9.35
2022-08-16T15:53:30.632Z,6.17
2022-08-16T15:55:59.061Z,6.03
2022-08-16T15:58:35.011Z,6.88
2022-08-16T16:01:05.032Z,9.75
2022-08-16T16:03:34.716Z,12.20
2022-08-16T16:06:03.560Z,6.03
2022-08-16T16:08:32.317Z,12.65
2022-08-16T16:11:03.160Z,5.90
2022-08-16T16:13:30.244Z,5.78
2022-08-16T16:16:00.379Z,11.90
2022-08-16T16:18:29.752Z,8.73
2022-08-16T16:20:59.983Z,5.88
2022-08-16T16:23:30.879Z,13.77
2022-08-16T16:25:58.500Z,6.68
2022-08-16T16:29:06.256Z,6.03
2022-08-16T16:31:17.331Z,9.93
2022-08-16T16:33:47.756Z,9.13
2022-08-16T16:36:19.156Z,10.55
2022-08-16T16:38:47.432Z,10.55
2022-08-16T16:41:22.637Z,7.03
2022-08-16T16:43:53.456Z,7.25
2022-08-16T16:46:41.243Z,7.20
2022-08-16T16:49:12.222Z,9.82
2022-08-16T16:51:41.316Z,9.68
2022-08-16T16:54:12.695Z,10.82
2022-08-16T16:56:39.193Z,9.00
2022-08-16T16:59:12.543Z,6.30
2022-08-16T17:02:00.016Z,7.93
2022-08-16T17:04:31.693Z,10.53
2022-08-16T17:07:01.399Z,7.32
2022-08-16T17:09:28.033Z,6.53
2022-08-16T17:11:56.299Z,7.35
2022-08-16T17:14:31.795Z,8.52
2022-08-16T17:16:59.140Z,5.90
2022-08-16T17:19:25.555Z,5.78
2022-08-16T17:21:58.629Z,5.88
2022-08-16T17:24:31.387Z,5.95
2022-08-16T17:27:07.997Z,3.97
2022-08-16T17:29:35.048Z,5.60
2022-08-16T17:32:46.615Z,5.78
2022-08-16T17:35:00.592Z,4.40
2022-08-16T17:37:34.170Z,3.83
2022-08-16T17:40:45.898Z,4.35
2022-08-16T17:43:01.162Z,6.03
2022-08-16T17:45:28.108Z,4.28
2022-08-16T17:47:54.619Z,6.07
2022-08-16T17:50:21.186Z,4.65
2022-08-16T17:52:54.925Z,6.03
2022-08-16T17:57:50.349Z,14.00
2022-08-16T18:00:20.418Z,6.43
2022-08-16T18:02:50.144Z,5.20
2022-08-16T18:05:17.946Z,7.47
2022-08-16T18:07:44.779Z,7.15
2022-08-16T18:10:12.663Z,12.30
2022-08-16T18:12:55.495Z,8.32
2022-08-16T18:15:23.507Z,8.63
2022-08-16T18:17:52.990Z,5.43
2022-08-16T18:20:41.123Z,8.02
2022-08-16T18:23:17.775Z,7.80
2022-08-16T18:26:06.639Z,7.93
2022-08-16T18:28:34.853Z,7.93
2022-08-16T18:31:05.696Z,11.65
2022-08-16T18:33:33.585Z,9.63
2022-08-16T18:36:20.535Z,9.43
2022-08-16T18:38:49.273Z,7.68
2022-08-16T18:41:16.302Z,10.02
2022-08-16T18:44:24.293Z,6.40
2022-08-16T18:46:29.301Z,7.45
2022-08-16T18:48:55.714Z,7.10
2022-08-16T18:51:25.169Z,6.88
2022-08-16T18:53:51.971Z,6.43
2022-08-16T18:56:18.441Z,6.65
2022-08-16T18:58:44.841Z,9.98
2022-08-16T19:01:11.369Z,13.52
2022-08-16T19:03:37.870Z,11.40
2022-08-16T19:06:11.310Z,6.28
2022-08-16T19:08:41.820Z,8.63
2022-08-16T19:11:13.866Z,5.32
2022-08-16T19:13:41.135Z,6.25
2022-08-16T19:16:07.649Z,8.05
2022-08-16T19:18:36.524Z,12.55
2022-08-16T19:21:04.167Z,7.43
2022-08-16T19:23:34.333Z,5.25
2022-08-16T19:26:06.878Z,8.18
2022-08-16T19:28:50.467Z,7.93
2022-08-16T19:31:28.088Z,5.40
2022-08-16T19:33:56.334Z,6.20
2022-08-16T19:36:31.730Z,9.07
2022-08-16T19:39:08.629Z,6.15
2022-08-16T19:41:37.922Z,9.55
2022-08-16T19:44:06.264Z,8.82
2022-08-16T19:46:32.944Z,5.78
2022-08-16T19:48:59.835Z,6.22
2022-08-16T19:51:26.780Z,6.35
2022-08-16T19:53:53.195Z,6.15
2022-08-16T19:56:22.847Z,6.72
2022-08-16T19:59:16.413Z,7.85
2022-08-16T20:01:41.699Z,6.22
2022-08-16T20:04:11.839Z,7.95
2022-08-16T20:06:39.032Z,9.02
2022-08-16T20:09:06.371Z,6.15
2022-08-16T20:11:34.563Z,7.97
2022-08-16T20:14:01.126Z,11.75
2022-08-16T20:16:27.571Z,8.55
2022-08-16T20:18:53.973Z,6.90
2022-08-16T20:21:20.510Z,9.98
2022-08-16T20:23:46.908Z,7.70
2022-08-16T20:26:16.051Z,7.80
2022-08-16T20:28:53.868Z,13.38
2022-08-16T20:31:24.814Z,11.52
2022-08-16T20:33:52.867Z,14.10
2022-08-16T20:36:19.287Z,9.13
2022-08-16T20:38:47.377Z,13.95
2022-08-16T20:41:14.672Z,11.18
2022-08-16T20:43:41.068Z,15.25
2022-08-16T20:46:07.610Z,13.57
2022-08-16T20:48:35.127Z,13.20
2022-08-16T20:51:01.590Z,14.10
2022-08-16T20:53:27.966Z,12.40
2022-08-16T20:55:54.482Z,15.02
2022-08-16T20:58:20.923Z,12.73
2022-08-16T21:00:47.444Z,14.02
2022-08-16T21:03:14.230Z,17.48
2022-08-16T21:05:40.643Z,16.85
2022-08-16T21:08:50.074Z,16.92
2022-08-16T21:10:54.187Z,18.55
2022-08-16T21:13:20.947Z,14.35
2022-08-16T21:15:47.781Z,16.02
2022-08-16T21:18:14.480Z,21.05
2022-08-16T21:20:41.128Z,14.85
2022-08-16T21:23:08.893Z,17.42
2022-08-16T21:25:37.392Z,15.45
2022-08-16T21:28:36.783Z,21.00
2022-08-16T21:30:58.300Z,17.30
2022-08-16T21:33:24.878Z,16.05
2022-08-16T21:35:52.581Z,17.42
2022-08-16T21:38:29.068Z,17.67
2022-08-16T21:40:57.258Z,16.15
2022-08-16T21:43:25.266Z,21.05
2022-08-16T21:45:55.425Z,23.58
2022-08-16T21:48:33.886Z,18.17
2022-08-16T21:51:05.919Z,21.48
2022-08-16T21:53:32.347Z,20.65
2022-08-16T21:56:00.106Z,20.23
2022-08-16T21:58:26.918Z,20.48
2022-08-16T22:00:53.990Z,17.38
2022-08-16T22:03:21.167Z,17.45
2022-08-16T22:06:12.356Z,17.73
2022-08-16T22:08:35.805Z,19.05
2022-08-16T22:11:13.297Z,17.45
2022-08-16T22:13:40.243Z,18.00
2022-08-16T22:16:07.561Z,16.58
2022-08-16T22:18:34.005Z,17.90
2022-08-16T22:21:00.430Z,21.00
2022-08-16T22:23:26.981Z,20.10
2022-08-16T22:25:54.928Z,15.73
2022-08-16T22:28:22.626Z,18.73
2022-08-16T22:30:49.519Z,19.05
2022-08-16T22:33:22.593Z,16.38
2022-08-16T22:35:57.843Z,17.95
2022-08-16T22:38:55.204Z,20.42
2022-08-16T22:41:11.462Z,18.95
2022-08-16T22:43:37.939Z,18.98
2022-08-16T22:46:04.706Z,19.08
2022-08-16T22:48:32.095Z,15.88
2022-08-16T22:51:05.824Z,17.23
2022-08-16T22:53:32.280Z,16.13
2022-08-16T22:55:58.678Z,13.98
2022-08-16T22:58:34.635Z,17.08
2022-08-16T23:01:05.680Z,12.88
2022-08-16T23:03:32.331Z,15.07
2022-08-16T23:06:00.367Z,15.20
2022-08-16T23:08:35.014Z,14.02
2022-08-16T23:11:08.905Z,14.10
2022-08-16T23:13:35.332Z,15.90
2022-08-16T23:16:11.418Z,15.88
2022-08-16T23:18:39.341Z,14.57
2022-08-16T23:21:09.507Z,16.58
2022-08-16T23:23:37.262Z,11.50
2022-08-16T23:26:46.134Z,14.15
2022-08-16T23:28:51.347Z,21.13
2022-08-16T23:31:18.118Z,21.15
2022-08-16T23:33:44.715Z,20.27
2022-08-16T23:36:11.487Z,15.80
2022-08-16T23:38:39.492Z,18.00
2022-08-16T23:41:09.102Z,19.80
2022-08-16T23:43:41.564Z,19.50
2022-08-16T23:46:11.603Z,16.95
2022-08-16T23:49:59.360Z,18.67
2022-08-16T23:51:24.445Z,17.55
2022-08-16T23:53:50.880Z,25.55
2022-08-16T23:56:20.372Z,17.63
2022-08-16T23:58:49.776Z,17.42
